Terminal Aerodrome Forecast
Issued by NWS

Home | Current Version | Previous Version | Text Only | Print | Product List | Glossary On
Versions: 1 2 3 4 5 6 7 8 9 10 11 12 13 14 15 16 17 18 19
177
FTUS44 KTSA 231740
TAFFYV
TAF
KFYV 231740Z 2318/2418 08004KT P6SM -RA BKN006 OVC012
     FM232000 09006KT 3SM -RA BR BKN006 BKN012
     FM240300 VRB03KT 2SM -RA BR OVC005
     FM240900 VRB03KT 1SM BR VCSH OVC003
     FM241600 15006KT 3SM -RA VCTS BKN005CB=

USA.gov is the U.S. government's official web portal to all federal, state and local government web resources and services.